createdAt,value
2019-02-15T00:01:06.901Z,12.53
2019-02-15T00:03:36.373Z,11.87
2019-02-15T00:06:06.206Z,11.07
2019-02-15T00:08:36.166Z,11.17
2019-02-15T00:11:05.714Z,12.27
2019-02-15T00:13:35.401Z,12.23
2019-02-15T00:16:04.623Z,11.97
2019-02-15T00:18:55.655Z,12.70
2019-02-15T00:21:27.642Z,12.70
2019-02-15T00:23:56.911Z,11.70
2019-02-15T00:26:26.130Z,13.50
2019-02-15T00:28:55.428Z,12.60
2019-02-15T00:31:24.670Z,12.33
2019-02-15T00:33:53.996Z,11.37
2019-02-15T00:36:23.278Z,10.90
2019-02-15T00:38:52.534Z,12.07
2019-02-15T00:41:21.820Z,13.50
2019-02-15T00:43:51.085Z,9.87
2019-02-15T00:46:51.666Z,9.80
2019-02-15T00:49:52.280Z,12.67
2019-02-15T00:52:43.441Z,11.20
2019-02-15T00:55:27.001Z,11.77
2019-02-15T00:58:18.154Z,10.50
2019-02-15T01:01:09.351Z,9.83
2019-02-15T01:04:16.459Z,10.17
2019-02-15T01:07:39.317Z,12.23
2019-02-15T01:10:33.397Z,14.43
2019-02-15T01:13:12.881Z,16.53
2019-02-15T01:15:42.180Z,15.73
2019-02-15T01:18:11.476Z,19.67
2019-02-15T01:20:40.726Z,15.20
2019-02-15T01:23:10.984Z,13.50
2019-02-15T01:25:49.649Z,14.83
2019-02-15T01:28:36.117Z,17.23
2019-02-15T01:31:25.971Z,16.57
2019-02-15T01:34:26.212Z,15.27
2019-02-15T01:37:06.467Z,21.50
2019-02-15T01:39:44.528Z,21.47
2019-02-15T01:42:32.100Z,17.57
2019-02-15T01:45:14.741Z,15.63
2019-02-15T01:47:46.797Z,15.83
2019-02-15T01:50:16.033Z,16.53
2019-02-15T01:52:45.283Z,28.23
2019-02-15T01:55:14.528Z,22.87
2019-02-15T01:57:43.817Z,25.30
2019-02-15T02:00:15.718Z,17.80
2019-02-15T02:02:44.955Z,20.17
2019-02-15T02:05:14.253Z,17.73
2019-02-15T02:07:43.504Z,25.43
2019-02-15T02:10:12.730Z,27.97
2019-02-15T02:12:42.062Z,50.47
2019-02-15T02:15:12.033Z,47.10
2019-02-15T02:17:41.270Z,31.27
2019-02-15T02:20:11.039Z,21.60
2019-02-15T02:22:40.318Z,22.33
2019-02-15T02:25:09.728Z,22.10
2019-02-15T02:27:39.410Z,22.37
2019-02-15T02:30:09.861Z,20.20
2019-02-15T02:32:39.186Z,15.67
2019-02-15T02:35:08.804Z,20.73
2019-02-15T02:37:38.079Z,29.37
2019-02-15T02:40:12.085Z,15.90
2019-02-15T02:42:41.371Z,15.67
2019-02-15T02:45:10.615Z,15.67
2019-02-15T02:47:39.852Z,14.97
2019-02-15T02:50:09.064Z,16.63
2019-02-15T02:52:38.852Z,19.00
2019-02-15T02:55:32.123Z,13.97
2019-02-15T02:58:01.340Z,14.03
2019-02-15T03:00:33.627Z,14.57
2019-02-15T03:03:01.845Z,15.47
2019-02-15T03:05:31.049Z,14.83
2019-02-15T03:08:00.355Z,15.53
2019-02-15T03:10:29.631Z,15.83
2019-02-15T03:12:58.846Z,15.80
2019-02-15T03:15:28.070Z,14.53
2019-02-15T03:17:57.295Z,19.20
2019-02-15T03:20:31.190Z,15.77
2019-02-15T03:22:57.573Z,17.60
2019-02-15T03:25:26.790Z,18.37
2019-02-15T03:27:56.030Z,16.40
2019-02-15T03:30:25.263Z,17.37
2019-02-15T03:32:54.538Z,16.57
2019-02-15T03:35:23.747Z,14.17
2019-02-15T03:38:07.445Z,15.77
2019-02-15T03:40:42.889Z,14.80
2019-02-15T03:43:12.196Z,17.53
2019-02-15T03:45:41.425Z,17.20
2019-02-15T03:48:10.708Z,16.27
2019-02-15T03:50:39.922Z,18.00
2019-02-15T03:53:09.622Z,19.10
2019-02-15T03:55:38.952Z,14.10
2019-02-15T03:58:08.190Z,18.97
2019-02-15T04:00:37.641Z,15.90
2019-02-15T04:03:06.870Z,15.17
2019-02-15T04:05:36.082Z,15.13
2019-02-15T04:08:05.429Z,17.03
2019-02-15T04:10:34.671Z,16.93
2019-02-15T04:13:03.901Z,13.97
2019-02-15T04:15:33.181Z,15.90
2019-02-15T04:18:02.425Z,19.00
2019-02-15T04:23:59.872Z,15.13
2019-02-15T04:26:29.194Z,14.87
2019-02-15T04:28:58.427Z,15.47
2019-02-15T04:31:27.685Z,18.70
2019-02-15T04:33:57.205Z,18.93
2019-02-15T04:36:26.548Z,16.07
2019-02-15T04:38:55.788Z,15.03
2019-02-15T04:41:25.020Z,16.47
2019-02-15T04:43:54.436Z,16.00
2019-02-15T04:46:23.666Z,17.47
2019-02-15T04:48:52.882Z,15.17
2019-02-15T04:51:22.168Z,15.40
2019-02-15T04:53:51.429Z,15.97
2019-02-15T04:56:20.718Z,16.97
2019-02-15T04:58:51.727Z,16.87
2019-02-15T05:01:20.962Z,19.10
2019-02-15T05:03:50.183Z,19.37
2019-02-15T05:06:37.774Z,16.83
2019-02-15T05:09:07.020Z,18.00
2019-02-15T05:11:36.283Z,17.17
2019-02-15T05:14:06.227Z,18.23
2019-02-15T05:16:35.561Z,19.20
2019-02-15T05:19:04.784Z,15.00
2019-02-15T05:21:34.050Z,18.37
2019-02-15T05:24:03.682Z,17.33
2019-02-15T05:26:32.954Z,17.47
2019-02-15T05:29:02.166Z,13.50
2019-02-15T05:31:31.452Z,18.60
2019-02-15T05:34:00.730Z,13.33
2019-02-15T05:36:29.987Z,13.80
2019-02-15T05:38:59.217Z,16.97
2019-02-15T05:41:28.514Z,14.90
2019-02-15T05:43:58.148Z,16.97
2019-02-15T05:46:27.357Z,14.30
2019-02-15T05:48:56.575Z,13.73
2019-02-15T05:51:25.815Z,15.43
2019-02-15T05:53:55.097Z,12.97
2019-02-15T05:56:24.393Z,14.77
2019-02-15T05:58:53.678Z,14.40
2019-02-15T06:01:24.816Z,12.40
2019-02-15T06:03:54.117Z,13.33
2019-02-15T06:06:23.401Z,17.33
2019-02-15T06:08:52.701Z,16.07
2019-02-15T06:11:21.942Z,20.73
2019-02-15T06:13:51.225Z,13.63
2019-02-15T06:16:20.513Z,13.13
2019-02-15T06:18:49.743Z,14.37
2019-02-15T06:21:19.060Z,13.07
2019-02-15T06:23:48.299Z,14.97
2019-02-15T06:26:18.009Z,14.00
2019-02-15T06:28:47.252Z,14.70
2019-02-15T06:31:16.525Z,18.03
2019-02-15T06:33:45.802Z,18.63
2019-02-15T06:36:15.083Z,17.40
2019-02-15T06:38:44.304Z,18.20
2019-02-15T06:41:13.597Z,21.73
2019-02-15T06:43:43.722Z,21.07
2019-02-15T06:46:16.145Z,20.13
2019-02-15T06:48:45.436Z,19.63
2019-02-15T06:51:14.727Z,20.87
2019-02-15T06:53:44.079Z,20.37
2019-02-15T06:56:13.400Z,15.67
2019-02-15T06:59:00.563Z,14.77
2019-02-15T07:01:48.794Z,13.30
2019-02-15T07:04:43.246Z,15.30
2019-02-15T07:07:15.323Z,13.67
2019-02-15T07:09:44.617Z,14.23
2019-02-15T07:12:17.076Z,13.17
2019-02-15T07:14:46.484Z,15.83
2019-02-15T07:17:15.804Z,17.83
2019-02-15T07:19:45.100Z,16.23
2019-02-15T07:22:14.377Z,16.33
2019-02-15T07:24:47.202Z,16.07
2019-02-15T07:27:16.582Z,17.03
2019-02-15T07:29:45.855Z,19.40
2019-02-15T07:32:20.829Z,16.73
2019-02-15T07:34:50.161Z,16.27
2019-02-15T07:37:19.455Z,14.80
2019-02-15T07:39:54.578Z,18.60
2019-02-15T07:42:24.326Z,16.10
2019-02-15T07:44:53.671Z,17.00
2019-02-15T07:47:23.020Z,19.50
2019-02-15T07:49:52.317Z,16.50
2019-02-15T07:52:21.603Z,17.27
2019-02-15T07:54:50.908Z,19.30
2019-02-15T07:57:21.235Z,19.77
2019-02-15T07:59:50.666Z,24.93
2019-02-15T08:02:19.955Z,20.10
2019-02-15T08:04:49.227Z,17.17
2019-02-15T08:07:18.582Z,20.27
2019-02-15T08:09:47.928Z,23.83
2019-02-15T08:12:17.908Z,28.50
2019-02-15T08:14:47.211Z,19.63
2019-02-15T08:17:16.585Z,16.37
2019-02-15T08:19:47.065Z,20.90
2019-02-15T08:22:16.425Z,12.93
2019-02-15T08:24:45.715Z,14.40
2019-02-15T08:27:14.973Z,14.43
2019-02-15T08:29:47.108Z,18.93
2019-02-15T08:32:19.352Z,18.37
2019-02-15T08:34:49.049Z,14.23
2019-02-15T08:37:18.597Z,15.67
2019-02-15T08:39:48.069Z,13.60
2019-02-15T08:42:17.333Z,19.57
2019-02-15T08:44:46.934Z,16.20
2019-02-15T08:47:18.656Z,15.33
2019-02-15T08:49:47.998Z,22.27
2019-02-15T08:52:21.335Z,18.83
2019-02-15T08:54:50.917Z,16.70
2019-02-15T08:57:20.633Z,17.73
2019-02-15T08:59:50.123Z,18.30
2019-02-15T09:02:23.939Z,18.73
2019-02-15T09:04:53.272Z,18.60
2019-02-15T09:07:24.705Z,17.40
2019-02-15T09:09:54.536Z,18.53
2019-02-15T09:12:24.028Z,18.43
2019-02-15T09:14:53.387Z,15.50
2019-02-15T09:17:22.697Z,14.17
2019-02-15T09:19:59.880Z,19.33
2019-02-15T09:22:29.331Z,16.97
2019-02-15T09:24:58.608Z,14.37
2019-02-15T09:28:05.216Z,16.90
2019-02-15T09:30:34.505Z,14.33
2019-02-15T09:33:06.368Z,19.50
2019-02-15T09:35:38.343Z,16.27
2019-02-15T09:38:07.706Z,15.27
2019-02-15T09:40:37.037Z,16.07
2019-02-15T09:43:06.598Z,18.97
2019-02-15T09:45:39.761Z,15.53
2019-02-15T09:48:09.858Z,15.07
2019-02-15T09:50:41.721Z,14.67
2019-02-15T09:53:11.541Z,17.07
2019-02-15T09:55:40.977Z,14.70
2019-02-15T09:58:10.291Z,19.10
2019-02-15T10:00:42.584Z,20.27
2019-02-15T10:03:12.067Z,16.37
2019-02-15T10:05:41.316Z,15.33
2019-02-15T10:08:10.563Z,15.50
2019-02-15T10:10:43.425Z,13.00
2019-02-15T10:13:13.461Z,14.97
2019-02-15T10:15:45.847Z,11.10
2019-02-15T10:18:15.760Z,17.90
2019-02-15T10:20:48.310Z,14.27
2019-02-15T10:23:28.017Z,17.33
2019-02-15T10:25:57.411Z,18.57
2019-02-15T10:28:26.857Z,14.80
2019-02-15T10:30:56.158Z,17.67
2019-02-15T10:33:25.959Z,13.07
2019-02-15T10:35:55.327Z,10.17
2019-02-15T10:38:24.631Z,16.50
2019-02-15T10:40:54.220Z,14.87
2019-02-15T10:43:23.531Z,12.90
2019-02-15T10:45:52.940Z,12.53
2019-02-15T10:48:27.335Z,15.60
2019-02-15T10:50:56.686Z,12.90
2019-02-15T10:53:26.358Z,16.87
2019-02-15T10:55:55.685Z,13.77
2019-02-15T10:58:26.390Z,12.47
2019-02-15T11:00:56.034Z,12.73
2019-02-15T11:03:25.319Z,12.90
2019-02-15T11:05:54.634Z,14.30
2019-02-15T11:08:24.558Z,10.63
2019-02-15T11:10:53.860Z,15.47
2019-02-15T11:13:23.132Z,12.60
2019-02-15T11:15:56.395Z,9.23
2019-02-15T11:18:25.715Z,12.33
2019-02-15T11:20:56.807Z,15.00
2019-02-15T11:23:26.164Z,18.77
2019-02-15T11:25:55.422Z,10.80
2019-02-15T11:28:27.037Z,12.00
2019-02-15T11:30:56.349Z,12.17
2019-02-15T11:33:25.828Z,14.70
2019-02-15T11:35:55.574Z,13.63
2019-02-15T11:38:24.897Z,17.57
2019-02-15T11:40:54.721Z,18.07
2019-02-15T11:43:24.052Z,8.67
2019-02-15T11:45:59.487Z,13.20
2019-02-15T11:48:29.519Z,14.90
2019-02-15T11:50:58.877Z,12.47
2019-02-15T11:53:28.215Z,11.67
2019-02-15T11:55:57.428Z,11.43
2019-02-15T11:58:26.646Z,10.20
2019-02-15T12:00:55.901Z,27.00
2019-02-15T12:03:25.171Z,16.90
2019-02-15T12:05:54.427Z,15.07
2019-02-15T12:08:23.696Z,19.37
2019-02-15T12:10:52.952Z,28.97
2019-02-15T12:13:22.402Z,43.53
2019-02-15T12:15:51.679Z,24.67
2019-02-15T12:18:20.959Z,9.67
2019-02-15T12:20:50.248Z,13.73
2019-02-15T12:23:19.511Z,10.00
2019-02-15T12:25:48.772Z,16.27
2019-02-15T12:28:18.757Z,9.07
2019-02-15T12:30:48.033Z,12.13
2019-02-15T12:33:17.276Z,6.33
2019-02-15T12:35:46.655Z,6.30
2019-02-15T12:38:15.878Z,8.17
2019-02-15T12:40:45.115Z,8.40
2019-02-15T12:43:14.307Z,10.77
2019-02-15T12:45:43.583Z,12.13
2019-02-15T12:48:12.803Z,10.13
2019-02-15T12:50:42.077Z,8.23
2019-02-15T12:53:11.267Z,8.23
2019-02-15T12:55:40.861Z,6.00
2019-02-15T12:58:10.288Z,7.77
2019-02-15T13:04:09.019Z,7.67
2019-02-15T13:06:38.399Z,11.60
2019-02-15T13:09:07.780Z,10.47
2019-02-15T13:11:38.349Z,8.03
2019-02-15T13:14:07.655Z,8.13
2019-02-15T13:16:36.901Z,9.57
2019-02-15T13:19:06.177Z,7.20
2019-02-15T13:21:35.531Z,7.93
2019-02-15T13:24:04.779Z,8.10
2019-02-15T13:26:34.037Z,8.13
2019-02-15T13:29:03.284Z,8.43
2019-02-15T13:31:32.608Z,9.23
2019-02-15T13:34:01.845Z,10.07
2019-02-15T13:36:31.121Z,7.50
2019-02-15T13:39:00.359Z,8.80
2019-02-15T13:41:29.658Z,5.43
2019-02-15T13:44:01.983Z,6.83
2019-02-15T13:46:33.238Z,5.23
2019-02-15T13:49:02.177Z,8.57
2019-02-15T13:51:31.490Z,15.03
2019-02-15T13:54:00.742Z,8.07
2019-02-15T13:56:30.024Z,9.70
2019-02-15T13:58:59.300Z,6.47
2019-02-15T14:01:28.563Z,6.07
2019-02-15T14:03:57.814Z,4.80
2019-02-15T14:06:27.053Z,9.53
2019-02-15T14:08:56.319Z,6.43
2019-02-15T14:11:25.559Z,20.20
2019-02-15T14:13:54.897Z,19.00
2019-02-15T14:16:24.264Z,9.77
2019-02-15T14:18:53.923Z,8.80
2019-02-15T14:21:23.193Z,7.03
2019-02-15T14:23:52.450Z,14.83
2019-02-15T14:26:22.117Z,8.00
2019-02-15T14:28:51.467Z,5.93
2019-02-15T14:31:23.473Z,10.50
2019-02-15T14:33:52.702Z,6.23
2019-02-15T14:36:22.044Z,3.83
2019-02-15T14:38:51.262Z,3.83
2019-02-15T14:41:20.485Z,4.23
2019-02-15T14:43:49.737Z,5.10
2019-02-15T14:46:18.978Z,9.03
2019-02-15T14:48:48.234Z,3.27
2019-02-15T14:51:17.556Z,3.10
2019-02-15T14:53:49.772Z,9.00
2019-02-15T14:56:19.047Z,8.97
2019-02-15T14:58:48.321Z,7.00
2019-02-15T15:01:17.565Z,6.33
2019-02-15T15:03:47.140Z,5.03
2019-02-15T15:06:16.589Z,5.47
2019-02-15T15:08:45.928Z,9.90
2019-02-15T15:11:15.286Z,13.10
2019-02-15T15:13:44.514Z,6.43
2019-02-15T15:16:23.499Z,7.90
2019-02-15T15:18:52.819Z,6.20
2019-02-15T15:21:22.054Z,6.97
2019-02-15T15:23:51.355Z,8.13
2019-02-15T15:27:08.749Z,4.60
2019-02-15T15:29:38.025Z,7.33
2019-02-15T15:32:07.351Z,7.00
2019-02-15T15:34:40.509Z,3.93
2019-02-15T15:37:16.534Z,6.90
2019-02-15T15:39:44.160Z,4.10
2019-02-15T15:42:13.442Z,13.27
2019-02-15T15:44:42.720Z,5.80
2019-02-15T15:47:12.058Z,6.03
2019-02-15T15:49:41.425Z,4.37
2019-02-15T15:52:10.758Z,4.73
2019-02-15T15:54:40.075Z,9.47
2019-02-15T15:57:09.388Z,9.57
2019-02-15T15:59:38.635Z,14.50
2019-02-15T16:02:07.976Z,7.77
2019-02-15T16:04:37.217Z,6.13
2019-02-15T16:07:06.559Z,8.33
2019-02-15T16:09:35.796Z,11.10
2019-02-15T16:12:05.098Z,13.03
2019-02-15T16:14:34.500Z,11.80
2019-02-15T16:17:03.825Z,10.63
2019-02-15T16:19:40.567Z,7.70
2019-02-15T16:22:04.251Z,13.70
2019-02-15T16:24:33.582Z,8.03
2019-02-15T16:27:02.901Z,5.53
2019-02-15T16:29:32.488Z,11.47
2019-02-15T16:32:01.771Z,12.60
2019-02-15T16:34:31.039Z,11.27
2019-02-15T16:37:00.352Z,13.83
2019-02-15T16:39:29.649Z,11.73
2019-02-15T16:41:58.902Z,13.70
2019-02-15T16:44:28.182Z,13.93
2019-02-15T16:46:57.545Z,19.80
2019-02-15T16:49:26.864Z,35.50
2019-02-15T16:51:56.199Z,29.93
2019-02-15T16:54:25.582Z,24.27
2019-02-15T16:56:56.141Z,17.70
2019-02-15T16:59:25.428Z,8.00
2019-02-15T17:01:54.760Z,11.37
2019-02-15T17:04:24.736Z,12.30
2019-02-15T17:06:54.054Z,11.60
2019-02-15T17:09:23.519Z,13.87
2019-02-15T17:11:52.892Z,10.53
2019-02-15T17:14:22.096Z,11.43
2019-02-15T17:16:52.496Z,9.43
2019-02-15T17:19:21.878Z,8.77
2019-02-15T17:21:51.097Z,12.63
2019-02-15T17:24:20.458Z,14.23
2019-02-15T17:26:49.696Z,20.57
2019-02-15T17:29:19.006Z,21.87
2019-02-15T17:31:49.517Z,23.57
2019-02-15T17:34:18.839Z,14.03
2019-02-15T17:36:48.473Z,18.13
2019-02-15T17:39:17.875Z,21.70
2019-02-15T17:41:47.689Z,32.17
2019-02-15T17:44:16.901Z,34.87
2019-02-15T17:46:46.171Z,31.13
2019-02-15T17:49:15.771Z,32.37
2019-02-15T17:51:45.075Z,31.30
2019-02-15T17:54:15.199Z,23.10
2019-02-15T17:56:44.511Z,37.40
2019-02-15T17:59:13.769Z,31.33
2019-02-15T18:01:43.070Z,22.87
2019-02-15T18:04:12.392Z,23.90
2019-02-15T18:06:41.759Z,30.30
2019-02-15T18:09:11.317Z,27.83
2019-02-15T18:11:40.757Z,21.00
2019-02-15T18:14:10.353Z,20.13
2019-02-15T18:16:49.390Z,16.43
2019-02-15T18:19:18.653Z,25.20
2019-02-15T18:21:47.922Z,15.20
2019-02-15T18:25:11.692Z,11.67
2019-02-15T18:27:41.407Z,12.53
2019-02-15T18:30:14.298Z,27.30
2019-02-15T18:32:43.545Z,26.50
2019-02-15T18:35:23.329Z,44.80
2019-02-15T18:37:54.690Z,53.50
2019-02-15T18:40:24.003Z,25.33
2019-02-15T18:42:57.086Z,16.00
2019-02-15T18:45:26.435Z,27.60
2019-02-15T18:48:19.452Z,28.80
2019-02-15T18:50:48.792Z,26.33
2019-02-15T18:53:18.177Z,41.40
2019-02-15T18:55:47.557Z,45.67
2019-02-15T18:58:16.877Z,27.13
2019-02-15T19:00:46.409Z,26.37
2019-02-15T19:03:15.940Z,20.80
2019-02-15T19:05:45.217Z,28.60
2019-02-15T19:08:14.568Z,39.23
2019-02-15T19:10:43.860Z,35.40
2019-02-15T19:13:20.543Z,29.03
2019-02-15T19:15:50.059Z,27.87
2019-02-15T19:18:19.340Z,38.50
2019-02-15T19:20:48.637Z,36.03
2019-02-15T19:24:24.049Z,30.73
2019-02-15T19:26:53.445Z,48.53
2019-02-15T19:29:22.729Z,29.83
2019-02-15T19:31:52.108Z,43.33
2019-02-15T19:34:21.887Z,44.47
2019-02-15T19:36:51.200Z,36.80
2019-02-15T19:39:20.535Z,33.93
2019-02-15T19:41:49.850Z,28.20
2019-02-15T19:44:19.181Z,20.07
2019-02-15T19:46:48.578Z,30.13
2019-02-15T19:49:19.146Z,21.03
2019-02-15T19:51:48.480Z,22.00
2019-02-15T19:54:17.960Z,30.07
2019-02-15T19:56:47.270Z,13.50
2019-02-15T19:59:16.611Z,14.77
2019-02-15T20:01:45.971Z,15.37
2019-02-15T20:04:15.279Z,17.47
2019-02-15T20:06:44.610Z,26.97
2019-02-15T20:09:14.077Z,26.57
2019-02-15T20:11:43.500Z,13.00
2019-02-15T20:14:13.170Z,20.53
2019-02-15T20:16:42.541Z,12.47
2019-02-15T20:19:11.858Z,12.70
2019-02-15T20:21:41.140Z,14.50
2019-02-15T20:24:10.501Z,10.73
2019-02-15T20:26:39.829Z,15.03
2019-02-15T20:29:09.381Z,20.30
2019-02-15T20:31:38.741Z,23.60
2019-02-15T20:34:08.060Z,21.07
2019-02-15T20:36:37.378Z,25.07
2019-02-15T20:39:06.820Z,28.53
2019-02-15T20:41:36.181Z,27.63
2019-02-15T20:44:05.675Z,22.00
2019-02-15T20:46:35.039Z,16.30
2019-02-15T20:49:05.086Z,11.73
2019-02-15T20:51:34.597Z,10.77
2019-02-15T20:54:04.089Z,14.60
2019-02-15T20:56:33.587Z,15.60
2019-02-15T20:59:02.998Z,17.27
2019-02-15T21:01:37.203Z,14.90
2019-02-15T21:04:06.979Z,9.00
2019-02-15T21:06:36.925Z,9.70
2019-02-15T21:09:07.532Z,13.97
2019-02-15T21:11:37.002Z,10.03
2019-02-15T21:14:06.345Z,11.20
2019-02-15T21:16:35.716Z,17.20
2019-02-15T21:19:04.973Z,15.10
2019-02-15T21:21:34.368Z,21.07
2019-02-15T21:24:03.899Z,16.03
2019-02-15T21:26:33.284Z,18.57
2019-02-15T21:29:02.742Z,17.97
2019-02-15T21:31:32.328Z,13.80
2019-02-15T21:34:03.109Z,9.87
2019-02-15T21:36:32.786Z,7.23
2019-02-15T21:39:02.305Z,10.13
2019-02-15T21:41:32.301Z,5.90
2019-02-15T21:44:01.627Z,9.57
2019-02-15T21:47:04.430Z,6.07
2019-02-15T21:49:33.734Z,9.97
2019-02-15T21:52:27.312Z,10.80
2019-02-15T21:54:56.535Z,14.40
2019-02-15T21:57:25.840Z,20.23
2019-02-15T21:59:55.143Z,10.63
2019-02-15T22:02:24.515Z,9.67
2019-02-15T22:04:53.779Z,10.13
2019-02-15T22:07:23.454Z,10.00
2019-02-15T22:09:52.690Z,16.80
2019-02-15T22:12:21.914Z,23.03
2019-02-15T22:14:51.214Z,22.00
2019-02-15T22:17:20.467Z,22.33
2019-02-15T22:19:49.746Z,19.50
2019-02-15T22:22:19.049Z,11.57
2019-02-15T22:24:48.321Z,11.03
2019-02-15T22:27:17.589Z,9.73
2019-02-15T22:29:46.988Z,7.30
2019-02-15T22:32:16.210Z,11.70
2019-02-15T22:34:45.463Z,15.10
2019-02-15T22:37:14.678Z,9.50
2019-02-15T22:39:43.993Z,9.67
2019-02-15T22:42:13.257Z,11.60
2019-02-15T22:44:42.540Z,18.30
2019-02-15T22:47:20.592Z,20.93
2019-02-15T22:49:49.829Z,15.77
2019-02-15T22:52:19.084Z,12.93
2019-02-15T22:54:48.332Z,10.63
2019-02-15T22:57:17.546Z,9.60
2019-02-15T22:59:46.782Z,8.73
2019-02-15T23:02:16.173Z,18.60
2019-02-15T23:04:45.416Z,9.17
2019-02-15T23:07:14.615Z,14.30
2019-02-15T23:09:43.901Z,10.70
2019-02-15T23:12:13.150Z,7.10
2019-02-15T23:14:42.416Z,7.20
2019-02-15T23:17:11.651Z,9.10
2019-02-15T23:19:40.908Z,7.57
2019-02-15T23:22:10.172Z,10.37
2019-02-15T23:24:39.408Z,7.37
2019-02-15T23:27:08.646Z,8.40
2019-02-15T23:29:37.882Z,7.53
2019-02-15T23:32:07.095Z,7.77
2019-02-15T23:34:36.331Z,5.83
2019-02-15T23:37:05.581Z,6.80
2019-02-15T23:39:34.805Z,6.40
2019-02-15T23:42:04.032Z,6.80
2019-02-15T23:44:33.627Z,7.43
2019-02-15T23:47:02.837Z,7.13
2019-02-15T23:49:32.101Z,9.67
2019-02-15T23:52:01.288Z,7.57
2019-02-15T23:54:30.525Z,8.67
2019-02-15T23:56:59.873Z,8.50
2019-02-15T23:59:35.578Z,9.97
